sensor_id;sensor_type;location;lat;lon;timestamp;P1;durP1;ratioP1;P2;durP2;ratioP2
3070;SDS011;1546;47.208;9.038;2023-04-16T00:01:16;4.03;;;3.53;;
3070;SDS011;1546;47.208;9.038;2023-04-16T00:03:42;4.90;;;4.40;;
3070;SDS011;1546;47.208;9.038;2023-04-16T00:06:09;4.05;;;3.65;;
3070;SDS011;1546;47.208;9.038;2023-04-16T00:08:38;3.85;;;3.45;;
3070;SDS011;1546;47.208;9.038;2023-04-16T00:11:07;4.43;;;2.92;;
3070;SDS011;1546;47.208;9.038;2023-04-16T00:13:34;3.60;;;2.83;;
3070;SDS011;1546;47.208;9.038;2023-04-16T00:16:01;3.70;;;2.75;;
3070;SDS011;1546;47.208;9.038;2023-04-16T00:18:28;3.90;;;1.65;;
3070;SDS011;1546;47.208;9.038;2023-04-16T00:20:56;4.18;;;1.45;;
3070;SDS011;1546;47.208;9.038;2023-04-16T00:23:23;4.25;;;1.30;;
3070;SDS011;1546;47.208;9.038;2023-04-16T00:25:51;4.20;;;1.15;;
3070;SDS011;1546;47.208;9.038;2023-04-16T00:28:21;3.70;;;1.20;;
3070;SDS011;1546;47.208;9.038;2023-04-16T00:30:48;4.25;;;1.50;;
3070;SDS011;1546;47.208;9.038;2023-04-16T00:33:15;3.70;;;1.30;;
3070;SDS011;1546;47.208;9.038;2023-04-16T00:35:43;3.80;;;1.40;;
3070;SDS011;1546;47.208;9.038;2023-04-16T00:38:10;4.07;;;1.40;;
3070;SDS011;1546;47.208;9.038;2023-04-16T00:40:38;4.10;;;1.30;;
3070;SDS011;1546;47.208;9.038;2023-04-16T00:43:06;3.28;;;1.67;;
3070;SDS011;1546;47.208;9.038;2023-04-16T00:45:33;3.40;;;1.83;;
3070;SDS011;1546;47.208;9.038;2023-04-16T00:48:00;4.07;;;2.47;;
3070;SDS011;1546;47.208;9.038;2023-04-16T00:50:27;3.47;;;2.50;;
3070;SDS011;1546;47.208;9.038;2023-04-16T00:52:55;5.60;;;2.45;;
3070;SDS011;1546;47.208;9.038;2023-04-16T00:55:22;4.18;;;2.90;;
3070;SDS011;1546;47.208;9.038;2023-04-16T00:57:49;3.90;;;3.30;;
3070;SDS011;1546;47.208;9.038;2023-04-16T01:00:17;5.18;;;3.53;;
3070;SDS011;1546;47.208;9.038;2023-04-16T01:02:45;5.53;;;3.58;;
3070;SDS011;1546;47.208;9.038;2023-04-16T01:05:12;3.75;;;2.83;;
3070;SDS011;1546;47.208;9.038;2023-04-16T01:07:39;5.15;;;2.70;;
3070;SDS011;1546;47.208;9.038;2023-04-16T01:10:06;3.90;;;3.47;;
3070;SDS011;1546;47.208;9.038;2023-04-16T01:12:33;3.65;;;2.90;;
3070;SDS011;1546;47.208;9.038;2023-04-16T01:15:00;4.53;;;3.67;;
3070;SDS011;1546;47.208;9.038;2023-04-16T01:17:29;4.70;;;4.30;;
3070;SDS011;1546;47.208;9.038;2023-04-16T01:19:57;4.68;;;4.28;;
3070;SDS011;1546;47.208;9.038;2023-04-16T01:22:25;4.55;;;4.15;;
3070;SDS011;1546;47.208;9.038;2023-04-16T01:24:52;4.65;;;4.25;;
3070;SDS011;1546;47.208;9.038;2023-04-16T01:27:19;5.82;;;5.43;;
3070;SDS011;1546;47.208;9.038;2023-04-16T01:29:46;6.13;;;5.72;;
3070;SDS011;1546;47.208;9.038;2023-04-16T01:32:13;5.18;;;4.78;;
3070;SDS011;1546;47.208;9.038;2023-04-16T01:34:40;4.82;;;3.80;;
3070;SDS011;1546;47.208;9.038;2023-04-16T01:37:07;4.45;;;4.05;;
3070;SDS011;1546;47.208;9.038;2023-04-16T01:39:35;3.47;;;3.03;;
3070;SDS011;1546;47.208;9.038;2023-04-16T01:42:02;3.85;;;3.33;;
3070;SDS011;1546;47.208;9.038;2023-04-16T01:44:29;4.03;;;3.63;;
3070;SDS011;1546;47.208;9.038;2023-04-16T01:46:56;4.65;;;4.25;;
3070;SDS011;1546;47.208;9.038;2023-04-16T01:49:23;5.68;;;5.28;;
3070;SDS011;1546;47.208;9.038;2023-04-16T01:51:50;4.90;;;4.50;;
3070;SDS011;1546;47.208;9.038;2023-04-16T01:54:17;4.85;;;4.45;;
3070;SDS011;1546;47.208;9.038;2023-04-16T01:56:45;5.03;;;4.50;;
3070;SDS011;1546;47.208;9.038;2023-04-16T01:59:11;5.15;;;4.75;;
3070;SDS011;1546;47.208;9.038;2023-04-16T02:01:38;4.60;;;4.20;;
3070;SDS011;1546;47.208;9.038;2023-04-16T02:04:06;4.90;;;4.50;;
3070;SDS011;1546;47.208;9.038;2023-04-16T02:06:33;4.30;;;3.90;;
3070;SDS011;1546;47.208;9.038;2023-04-16T02:09:00;4.85;;;4.45;;
3070;SDS011;1546;47.208;9.038;2023-04-16T02:11:27;4.53;;;4.13;;
3070;SDS011;1546;47.208;9.038;2023-04-16T02:13:55;6.07;;;5.60;;
3070;SDS011;1546;47.208;9.038;2023-04-16T02:16:22;5.88;;;5.47;;
3070;SDS011;1546;47.208;9.038;2023-04-16T02:18:50;6.47;;;6.07;;
3070;SDS011;1546;47.208;9.038;2023-04-16T02:21:17;6.10;;;5.70;;
3070;SDS011;1546;47.208;9.038;2023-04-16T02:23:44;6.07;;;5.68;;
3070;SDS011;1546;47.208;9.038;2023-04-16T02:26:12;6.45;;;6.03;;
3070;SDS011;1546;47.208;9.038;2023-04-16T02:28:39;6.32;;;5.93;;
3070;SDS011;1546;47.208;9.038;2023-04-16T02:31:07;5.85;;;5.45;;
3070;SDS011;1546;47.208;9.038;2023-04-16T02:33:34;7.25;;;6.85;;
3070;SDS011;1546;47.208;9.038;2023-04-16T02:36:00;6.13;;;5.72;;
3070;SDS011;1546;47.208;9.038;2023-04-16T02:38:27;6.43;;;5.93;;
3070;SDS011;1546;47.208;9.038;2023-04-16T02:40:54;5.97;;;5.47;;
3070;SDS011;1546;47.208;9.038;2023-04-16T02:43:21;7.15;;;6.65;;
3070;SDS011;1546;47.208;9.038;2023-04-16T02:45:48;6.53;;;6.13;;
3070;SDS011;1546;47.208;9.038;2023-04-16T02:48:16;7.05;;;6.57;;
3070;SDS011;1546;47.208;9.038;2023-04-16T02:50:43;6.90;;;6.45;;
3070;SDS011;1546;47.208;9.038;2023-04-16T02:53:09;5.80;;;5.40;;
3070;SDS011;1546;47.208;9.038;2023-04-16T02:55:36;6.13;;;5.72;;
3070;SDS011;1546;47.208;9.038;2023-04-16T02:58:03;8.52;;;7.93;;
3070;SDS011;1546;47.208;9.038;2023-04-16T03:00:30;10.13;;;9.63;;
3070;SDS011;1546;47.208;9.038;2023-04-16T03:02:57;8.75;;;8.25;;
3070;SDS011;1546;47.208;9.038;2023-04-16T03:05:25;8.68;;;8.07;;
3070;SDS011;1546;47.208;9.038;2023-04-16T03:07:52;9.35;;;8.65;;
3070;SDS011;1546;47.208;9.038;2023-04-16T03:10:20;9.60;;;9.10;;
3070;SDS011;1546;47.208;9.038;2023-04-16T03:12:48;9.90;;;9.30;;
3070;SDS011;1546;47.208;9.038;2023-04-16T03:15:15;9.05;;;8.55;;
3070;SDS011;1546;47.208;9.038;2023-04-16T03:17:41;6.78;;;6.38;;
3070;SDS011;1546;47.208;9.038;2023-04-16T03:20:09;10.23;;;9.63;;
3070;SDS011;1546;47.208;9.038;2023-04-16T03:22:37;9.48;;;8.88;;
3070;SDS011;1546;47.208;9.038;2023-04-16T03:25:05;6.80;;;6.30;;
3070;SDS011;1546;47.208;9.038;2023-04-16T03:27:32;7.78;;;7.28;;
3070;SDS011;1546;47.208;9.038;2023-04-16T03:29:59;7.30;;;6.82;;
3070;SDS011;1546;47.208;9.038;2023-04-16T03:32:26;6.60;;;6.20;;
3070;SDS011;1546;47.208;9.038;2023-04-16T03:34:53;7.05;;;6.55;;
3070;SDS011;1546;47.208;9.038;2023-04-16T03:37:20;6.68;;;6.25;;
3070;SDS011;1546;47.208;9.038;2023-04-16T03:39:48;8.23;;;7.63;;
3070;SDS011;1546;47.208;9.038;2023-04-16T03:42:15;6.50;;;6.10;;
3070;SDS011;1546;47.208;9.038;2023-04-16T03:44:42;4.90;;;4.50;;
3070;SDS011;1546;47.208;9.038;2023-04-16T03:47:09;5.75;;;5.35;;
3070;SDS011;1546;47.208;9.038;2023-04-16T03:49:36;7.45;;;6.95;;
3070;SDS011;1546;47.208;9.038;2023-04-16T03:52:03;6.57;;;6.07;;
3070;SDS011;1546;47.208;9.038;2023-04-16T03:54:30;6.68;;;6.20;;
3070;SDS011;1546;47.208;9.038;2023-04-16T03:56:58;6.07;;;5.65;;
3070;SDS011;1546;47.208;9.038;2023-04-16T03:59:25;5.93;;;5.53;;
3070;SDS011;1546;47.208;9.038;2023-04-16T04:01:51;7.75;;;7.25;;
3070;SDS011;1546;47.208;9.038;2023-04-16T04:04:18;7.22;;;6.72;;
3070;SDS011;1546;47.208;9.038;2023-04-16T04:06:45;7.30;;;6.80;;
3070;SDS011;1546;47.208;9.038;2023-04-16T04:09:12;7.53;;;7.07;;
3070;SDS011;1546;47.208;9.038;2023-04-16T04:11:40;6.80;;;6.40;;
3070;SDS011;1546;47.208;9.038;2023-04-16T04:14:08;7.00;;;6.50;;
3070;SDS011;1546;47.208;9.038;2023-04-16T04:16:35;6.88;;;6.38;;
3070;SDS011;1546;47.208;9.038;2023-04-16T04:19:02;6.72;;;6.25;;
3070;SDS011;1546;47.208;9.038;2023-04-16T04:21:29;7.68;;;7.07;;
3070;SDS011;1546;47.208;9.038;2023-04-16T04:23:56;6.97;;;6.47;;
3070;SDS011;1546;47.208;9.038;2023-04-16T04:26:23;6.72;;;6.32;;
3070;SDS011;1546;47.208;9.038;2023-04-16T04:28:50;8.55;;;8.05;;
3070;SDS011;1546;47.208;9.038;2023-04-16T04:31:18;7.97;;;7.47;;
3070;SDS011;1546;47.208;9.038;2023-04-16T04:33:45;8.30;;;7.70;;
3070;SDS011;1546;47.208;9.038;2023-04-16T04:36:12;7.43;;;6.93;;
3070;SDS011;1546;47.208;9.038;2023-04-16T04:38:39;8.68;;;8.18;;
3070;SDS011;1546;47.208;9.038;2023-04-16T04:41:05;10.02;;;9.43;;
3070;SDS011;1546;47.208;9.038;2023-04-16T04:43:32;10.60;;;10.10;;
3070;SDS011;1546;47.208;9.038;2023-04-16T04:45:59;8.50;;;8.00;;
3070;SDS011;1546;47.208;9.038;2023-04-16T04:48:27;9.63;;;9.13;;
3070;SDS011;1546;47.208;9.038;2023-04-16T04:50:54;7.18;;;6.78;;
3070;SDS011;1546;47.208;9.038;2023-04-16T04:53:21;6.10;;;5.70;;
3070;SDS011;1546;47.208;9.038;2023-04-16T04:55:48;6.97;;;6.47;;
3070;SDS011;1546;47.208;9.038;2023-04-16T04:58:14;7.07;;;6.57;;
3070;SDS011;1546;47.208;9.038;2023-04-16T05:00:41;5.55;;;5.15;;
3070;SDS011;1546;47.208;9.038;2023-04-16T05:03:09;5.85;;;5.45;;
3070;SDS011;1546;47.208;9.038;2023-04-16T05:05:38;6.65;;;6.15;;
3070;SDS011;1546;47.208;9.038;2023-04-16T05:08:05;5.85;;;5.45;;
3070;SDS011;1546;47.208;9.038;2023-04-16T05:10:32;6.15;;;5.50;;
3070;SDS011;1546;47.208;9.038;2023-04-16T05:12:59;6.10;;;5.70;;
3070;SDS011;1546;47.208;9.038;2023-04-16T05:15:25;5.82;;;5.32;;
3070;SDS011;1546;47.208;9.038;2023-04-16T05:17:52;8.27;;;7.68;;
3070;SDS011;1546;47.208;9.038;2023-04-16T05:20:20;6.05;;;5.60;;
3070;SDS011;1546;47.208;9.038;2023-04-16T05:22:49;6.35;;;5.85;;
3070;SDS011;1546;47.208;9.038;2023-04-16T05:25:16;6.90;;;6.40;;
3070;SDS011;1546;47.208;9.038;2023-04-16T05:27:43;8.40;;;6.70;;
3070;SDS011;1546;47.208;9.038;2023-04-16T05:30:10;5.80;;;5.20;;
3070;SDS011;1546;47.208;9.038;2023-04-16T05:32:37;5.05;;;4.65;;
3070;SDS011;1546;47.208;9.038;2023-04-16T05:35:06;5.75;;;5.35;;
3070;SDS011;1546;47.208;9.038;2023-04-16T05:37:33;5.63;;;5.22;;
3070;SDS011;1546;47.208;9.038;2023-04-16T05:40:01;4.70;;;4.30;;
3070;SDS011;1546;47.208;9.038;2023-04-16T05:42:29;4.72;;;4.32;;
3070;SDS011;1546;47.208;9.038;2023-04-16T05:44:56;3.80;;;3.40;;
3070;SDS011;1546;47.208;9.038;2023-04-16T05:47:23;4.45;;;3.30;;
3070;SDS011;1546;47.208;9.038;2023-04-16T05:49:50;3.50;;;2.80;;
3070;SDS011;1546;47.208;9.038;2023-04-16T05:52:16;4.20;;;3.80;;
3070;SDS011;1546;47.208;9.038;2023-04-16T05:54:43;6.18;;;5.68;;
3070;SDS011;1546;47.208;9.038;2023-04-16T05:57:11;5.95;;;5.55;;
3070;SDS011;1546;47.208;9.038;2023-04-16T05:59:38;6.28;;;5.88;;
3070;SDS011;1546;47.208;9.038;2023-04-16T06:02:05;5.07;;;4.68;;
3070;SDS011;1546;47.208;9.038;2023-04-16T06:04:32;4.47;;;4.07;;
3070;SDS011;1546;47.208;9.038;2023-04-16T06:06:59;5.15;;;4.75;;
3070;SDS011;1546;47.208;9.038;2023-04-16T06:09:26;7.53;;;7.03;;
3070;SDS011;1546;47.208;9.038;2023-04-16T06:11:53;8.85;;;8.35;;
3070;SDS011;1546;47.208;9.038;2023-04-16T06:14:21;10.25;;;9.73;;
3070;SDS011;1546;47.208;9.038;2023-04-16T06:16:48;9.90;;;9.00;;
3070;SDS011;1546;47.208;9.038;2023-04-16T06:19:15;7.45;;;6.95;;
3070;SDS011;1546;47.208;9.038;2023-04-16T06:21:42;8.90;;;8.30;;
3070;SDS011;1546;47.208;9.038;2023-04-16T06:24:09;6.78;;;6.28;;
3070;SDS011;1546;47.208;9.038;2023-04-16T06:26:37;8.75;;;8.15;;
3070;SDS011;1546;47.208;9.038;2023-04-16T06:29:04;6.10;;;5.60;;
3070;SDS011;1546;47.208;9.038;2023-04-16T06:31:32;4.20;;;3.60;;
3070;SDS011;1546;47.208;9.038;2023-04-16T06:33:59;4.90;;;3.30;;
3070;SDS011;1546;47.208;9.038;2023-04-16T06:36:25;3.50;;;2.63;;
3070;SDS011;1546;47.208;9.038;2023-04-16T06:38:53;4.13;;;2.60;;
3070;SDS011;1546;47.208;9.038;2023-04-16T06:41:19;3.40;;;2.42;;
3070;SDS011;1546;47.208;9.038;2023-04-16T06:43:49;3.10;;;1.73;;
3070;SDS011;1546;47.208;9.038;2023-04-16T06:46:16;3.20;;;1.92;;
3070;SDS011;1546;47.208;9.038;2023-04-16T06:48:44;3.10;;;1.63;;
3070;SDS011;1546;47.208;9.038;2023-04-16T06:51:11;3.65;;;2.10;;
3070;SDS011;1546;47.208;9.038;2023-04-16T06:53:38;5.25;;;2.17;;
3070;SDS011;1546;47.208;9.038;2023-04-16T06:56:05;3.30;;;2.28;;
3070;SDS011;1546;47.208;9.038;2023-04-16T06:58:32;3.10;;;1.90;;
3070;SDS011;1546;47.208;9.038;2023-04-16T07:00:59;3.83;;;2.85;;
3070;SDS011;1546;47.208;9.038;2023-04-16T07:03:27;3.97;;;3.03;;
3070;SDS011;1546;47.208;9.038;2023-04-16T07:05:55;3.60;;;3.15;;
3070;SDS011;1546;47.208;9.038;2023-04-16T07:08:22;3.30;;;2.10;;
3070;SDS011;1546;47.208;9.038;2023-04-16T07:10:49;4.50;;;3.38;;
3070;SDS011;1546;47.208;9.038;2023-04-16T07:13:17;5.72;;;3.05;;
3070;SDS011;1546;47.208;9.038;2023-04-16T07:15:45;6.88;;;4.15;;
3070;SDS011;1546;47.208;9.038;2023-04-16T07:18:11;3.15;;;1.67;;
3070;SDS011;1546;47.208;9.038;2023-04-16T07:20:38;3.00;;;1.65;;
3070;SDS011;1546;47.208;9.038;2023-04-16T07:23:07;4.00;;;1.40;;
3070;SDS011;1546;47.208;9.038;2023-04-16T07:25:33;3.20;;;1.60;;
3070;SDS011;1546;47.208;9.038;2023-04-16T07:28:00;4.18;;;1.92;;
3070;SDS011;1546;47.208;9.038;2023-04-16T07:30:28;3.10;;;1.50;;
3070;SDS011;1546;47.208;9.038;2023-04-16T07:32:58;3.70;;;1.70;;
3070;SDS011;1546;47.208;9.038;2023-04-16T07:35:25;2.97;;;1.30;;
3070;SDS011;1546;47.208;9.038;2023-04-16T07:37:52;5.15;;;1.92;;
3070;SDS011;1546;47.208;9.038;2023-04-16T07:40:20;3.20;;;1.70;;
3070;SDS011;1546;47.208;9.038;2023-04-16T07:42:48;3.40;;;1.88;;
3070;SDS011;1546;47.208;9.038;2023-04-16T07:45:15;3.38;;;1.92;;
3070;SDS011;1546;47.208;9.038;2023-04-16T07:47:42;3.03;;;1.33;;
3070;SDS011;1546;47.208;9.038;2023-04-16T07:50:09;3.20;;;1.45;;
3070;SDS011;1546;47.208;9.038;2023-04-16T07:52:36;4.20;;;1.80;;
3070;SDS011;1546;47.208;9.038;2023-04-16T07:55:05;3.80;;;2.40;;
3070;SDS011;1546;47.208;9.038;2023-04-16T07:57:34;3.88;;;1.60;;
3070;SDS011;1546;47.208;9.038;2023-04-16T08:00:01;3.42;;;1.70;;
3070;SDS011;1546;47.208;9.038;2023-04-16T08:02:29;2.90;;;1.00;;
3070;SDS011;1546;47.208;9.038;2023-04-16T08:04:56;3.72;;;1.40;;
3070;SDS011;1546;47.208;9.038;2023-04-16T08:07:23;3.00;;;1.20;;
3070;SDS011;1546;47.208;9.038;2023-04-16T08:09:50;3.00;;;1.23;;
3070;SDS011;1546;47.208;9.038;2023-04-16T08:12:17;2.90;;;1.10;;
3070;SDS011;1546;47.208;9.038;2023-04-16T08:14:46;3.05;;;0.98;;
3070;SDS011;1546;47.208;9.038;2023-04-16T08:17:13;3.30;;;1.40;;
3070;SDS011;1546;47.208;9.038;2023-04-16T08:19:40;4.20;;;1.10;;
3070;SDS011;1546;47.208;9.038;2023-04-16T08:22:07;3.10;;;1.92;;
3070;SDS011;1546;47.208;9.038;2023-04-16T08:24:34;3.10;;;1.70;;
3070;SDS011;1546;47.208;9.038;2023-04-16T08:27:01;3.00;;;1.20;;
3070;SDS011;1546;47.208;9.038;2023-04-16T08:29:28;2.95;;;1.10;;
3070;SDS011;1546;47.208;9.038;2023-04-16T08:31:56;2.90;;;1.00;;
3070;SDS011;1546;47.208;9.038;2023-04-16T08:34:24;3.15;;;1.45;;
3070;SDS011;1546;47.208;9.038;2023-04-16T08:36:50;2.88;;;1.00;;
3070;SDS011;1546;47.208;9.038;2023-04-16T08:39:17;3.63;;;0.98;;
3070;SDS011;1546;47.208;9.038;2023-04-16T08:41:45;3.08;;;1.00;;
3070;SDS011;1546;47.208;9.038;2023-04-16T08:44:13;3.75;;;1.05;;
3070;SDS011;1546;47.208;9.038;2023-04-16T08:46:45;4.00;;;1.30;;
3070;SDS011;1546;47.208;9.038;2023-04-16T08:49:14;5.88;;;3.33;;
3070;SDS011;1546;47.208;9.038;2023-04-16T08:51:43;3.75;;;1.50;;
3070;SDS011;1546;47.208;9.038;2023-04-16T08:54:16;2.97;;;1.25;;
3070;SDS011;1546;47.208;9.038;2023-04-16T08:56:50;3.00;;;1.20;;
3070;SDS011;1546;47.208;9.038;2023-04-16T08:59:17;3.00;;;1.10;;
3070;SDS011;1546;47.208;9.038;2023-04-16T09:01:44;3.85;;;1.00;;
3070;SDS011;1546;47.208;9.038;2023-04-16T09:04:14;2.90;;;1.00;;
3070;SDS011;1546;47.208;9.038;2023-04-16T09:06:41;2.90;;;1.00;;
3070;SDS011;1546;47.208;9.038;2023-04-16T09:09:09;2.85;;;0.93;;
3070;SDS011;1546;47.208;9.038;2023-04-16T09:11:37;2.90;;;0.90;;
3070;SDS011;1546;47.208;9.038;2023-04-16T09:14:06;2.80;;;0.80;;
3070;SDS011;1546;47.208;9.038;2023-04-16T09:16:36;2.97;;;1.08;;
3070;SDS011;1546;47.208;9.038;2023-04-16T09:19:03;2.95;;;1.10;;
3070;SDS011;1546;47.208;9.038;2023-04-16T09:21:32;3.20;;;1.30;;
3070;SDS011;1546;47.208;9.038;2023-04-16T09:23:59;4.25;;;1.02;;
3070;SDS011;1546;47.208;9.038;2023-04-16T09:26:26;4.18;;;1.13;;
3070;SDS011;1546;47.208;9.038;2023-04-16T09:28:53;3.20;;;1.10;;
3070;SDS011;1546;47.208;9.038;2023-04-16T09:31:20;3.00;;;1.00;;
3070;SDS011;1546;47.208;9.038;2023-04-16T09:33:59;3.00;;;0.90;;
3070;SDS011;1546;47.208;9.038;2023-04-16T09:36:27;2.97;;;1.00;;
3070;SDS011;1546;47.208;9.038;2023-04-16T09:38:56;2.80;;;0.70;;
3070;SDS011;1546;47.208;9.038;2023-04-16T09:41:24;2.83;;;0.80;;
3070;SDS011;1546;47.208;9.038;2023-04-16T09:43:55;4.38;;;1.23;;
3070;SDS011;1546;47.208;9.038;2023-04-16T09:46:23;2.80;;;0.90;;
3070;SDS011;1546;47.208;9.038;2023-04-16T09:48:54;2.88;;;0.77;;
3070;SDS011;1546;47.208;9.038;2023-04-16T09:51:21;3.00;;;0.90;;
3070;SDS011;1546;47.208;9.038;2023-04-16T09:53:50;2.90;;;0.80;;
3070;SDS011;1546;47.208;9.038;2023-04-16T09:56:19;2.83;;;0.70;;
3070;SDS011;1546;47.208;9.038;2023-04-16T09:58:50;2.83;;;0.70;;
3070;SDS011;1546;47.208;9.038;2023-04-16T10:01:22;3.00;;;0.90;;
3070;SDS011;1546;47.208;9.038;2023-04-16T10:03:51;3.00;;;1.00;;
3070;SDS011;1546;47.208;9.038;2023-04-16T10:06:19;3.20;;;1.05;;
3070;SDS011;1546;47.208;9.038;2023-04-16T10:08:47;3.00;;;1.00;;
3070;SDS011;1546;47.208;9.038;2023-04-16T10:11:15;2.80;;;0.90;;
3070;SDS011;1546;47.208;9.038;2023-04-16T10:13:43;2.78;;;0.98;;
3070;SDS011;1546;47.208;9.038;2023-04-16T10:16:10;3.10;;;1.00;;
3070;SDS011;1546;47.208;9.038;2023-04-16T10:18:38;2.90;;;0.90;;
3070;SDS011;1546;47.208;9.038;2023-04-16T10:21:05;2.80;;;0.80;;
3070;SDS011;1546;47.208;9.038;2023-04-16T10:23:32;2.80;;;0.70;;
3070;SDS011;1546;47.208;9.038;2023-04-16T10:26:01;3.30;;;1.00;;
3070;SDS011;1546;47.208;9.038;2023-04-16T10:28:27;2.90;;;0.88;;
3070;SDS011;1546;47.208;9.038;2023-04-16T10:30:56;3.00;;;0.90;;
3070;SDS011;1546;47.208;9.038;2023-04-16T10:33:26;3.00;;;0.90;;
3070;SDS011;1546;47.208;9.038;2023-04-16T10:36:05;2.90;;;0.70;;
3070;SDS011;1546;47.208;9.038;2023-04-16T10:38:37;2.83;;;0.70;;
3070;SDS011;1546;47.208;9.038;2023-04-16T10:41:04;2.80;;;0.60;;
3070;SDS011;1546;47.208;9.038;2023-04-16T10:43:33;3.40;;;0.80;;
3070;SDS011;1546;47.208;9.038;2023-04-16T10:46:22;3.00;;;0.80;;
3070;SDS011;1546;47.208;9.038;2023-04-16T10:48:53;4.30;;;0.70;;
3070;SDS011;1546;47.208;9.038;2023-04-16T10:51:24;3.10;;;0.70;;
3070;SDS011;1546;47.208;9.038;2023-04-16T10:53:53;3.20;;;0.70;;
3070;SDS011;1546;47.208;9.038;2023-04-16T10:56:24;3.30;;;0.70;;
3070;SDS011;1546;47.208;9.038;2023-04-16T10:58:52;2.80;;;0.70;;
3070;SDS011;1546;47.208;9.038;2023-04-16T11:01:28;2.80;;;0.70;;
3070;SDS011;1546;47.208;9.038;2023-04-16T11:03:57;2.90;;;0.80;;
3070;SDS011;1546;47.208;9.038;2023-04-16T11:06:24;3.70;;;1.73;;
3070;SDS011;1546;47.208;9.038;2023-04-16T11:08:53;2.88;;;0.70;;
3070;SDS011;1546;47.208;9.038;2023-04-16T11:11:19;2.90;;;0.70;;
3070;SDS011;1546;47.208;9.038;2023-04-16T11:13:47;3.00;;;0.70;;
3070;SDS011;1546;47.208;9.038;2023-04-16T11:16:14;2.80;;;0.65;;
3070;SDS011;1546;47.208;9.038;2023-04-16T11:18:43;2.70;;;0.60;;
3070;SDS011;1546;47.208;9.038;2023-04-16T11:21:11;2.80;;;0.60;;
3070;SDS011;1546;47.208;9.038;2023-04-16T11:23:44;3.10;;;0.80;;
3070;SDS011;1546;47.208;9.038;2023-04-16T11:26:22;2.80;;;0.60;;
3070;SDS011;1546;47.208;9.038;2023-04-16T11:28:50;3.10;;;0.70;;
3070;SDS011;1546;47.208;9.038;2023-04-16T11:31:17;2.80;;;0.70;;
3070;SDS011;1546;47.208;9.038;2023-04-16T11:33:45;3.95;;;0.80;;
3070;SDS011;1546;47.208;9.038;2023-04-16T11:36:12;2.80;;;0.70;;
3070;SDS011;1546;47.208;9.038;2023-04-16T11:38:39;3.10;;;0.80;;
3070;SDS011;1546;47.208;9.038;2023-04-16T11:41:07;3.60;;;0.77;;
3070;SDS011;1546;47.208;9.038;2023-04-16T11:43:34;3.17;;;0.80;;
3070;SDS011;1546;47.208;9.038;2023-04-16T11:46:01;3.00;;;0.70;;
3070;SDS011;1546;47.208;9.038;2023-04-16T11:51:21;5.35;;;2.58;;
3070;SDS011;1546;47.208;9.038;2023-04-16T11:53:49;4.55;;;1.17;;
3070;SDS011;1546;47.208;9.038;2023-04-16T11:56:26;3.63;;;0.90;;
3070;SDS011;1546;47.208;9.038;2023-04-16T11:59:07;2.90;;;0.73;;
3070;SDS011;1546;47.208;9.038;2023-04-16T12:01:35;3.13;;;0.82;;
3070;SDS011;1546;47.208;9.038;2023-04-16T12:04:04;2.78;;;0.63;;
3070;SDS011;1546;47.208;9.038;2023-04-16T12:06:31;3.10;;;0.70;;
3070;SDS011;1546;47.208;9.038;2023-04-16T12:08:58;3.28;;;0.70;;
3070;SDS011;1546;47.208;9.038;2023-04-16T12:11:38;2.90;;;0.70;;
3070;SDS011;1546;47.208;9.038;2023-04-16T12:14:05;5.85;;;1.05;;
3070;SDS011;1546;47.208;9.038;2023-04-16T12:16:32;7.00;;;0.85;;
3070;SDS011;1546;47.208;9.038;2023-04-16T12:19:00;3.42;;;0.70;;
3070;SDS011;1546;47.208;9.038;2023-04-16T12:21:39;2.80;;;0.68;;
3070;SDS011;1546;47.208;9.038;2023-04-16T12:24:07;2.78;;;0.60;;
3070;SDS011;1546;47.208;9.038;2023-04-16T12:26:41;3.08;;;0.85;;
3070;SDS011;1546;47.208;9.038;2023-04-16T12:29:19;2.80;;;0.60;;
3070;SDS011;1546;47.208;9.038;2023-04-16T12:31:48;2.78;;;0.60;;
3070;SDS011;1546;47.208;9.038;2023-04-16T12:34:15;3.22;;;0.70;;
3070;SDS011;1546;47.208;9.038;2023-04-16T12:36:45;3.17;;;0.80;;
3070;SDS011;1546;47.208;9.038;2023-04-16T12:39:13;3.00;;;0.80;;
3070;SDS011;1546;47.208;9.038;2023-04-16T12:41:41;3.20;;;0.80;;
3070;SDS011;1546;47.208;9.038;2023-04-16T12:44:09;4.75;;;2.15;;
3070;SDS011;1546;47.208;9.038;2023-04-16T12:46:38;2.80;;;0.60;;
3070;SDS011;1546;47.208;9.038;2023-04-16T12:49:05;3.00;;;0.70;;
3070;SDS011;1546;47.208;9.038;2023-04-16T12:51:32;2.88;;;0.70;;
3070;SDS011;1546;47.208;9.038;2023-04-16T12:54:01;3.28;;;0.95;;
3070;SDS011;1546;47.208;9.038;2023-04-16T12:56:30;3.90;;;1.00;;
3070;SDS011;1546;47.208;9.038;2023-04-16T12:58:57;3.65;;;1.00;;
3070;SDS011;1546;47.208;9.038;2023-04-16T13:01:23;4.70;;;0.80;;
3070;SDS011;1546;47.208;9.038;2023-04-16T13:03:50;2.90;;;0.80;;
3070;SDS011;1546;47.208;9.038;2023-04-16T13:06:17;3.83;;;0.90;;
3070;SDS011;1546;47.208;9.038;2023-04-16T13:08:45;3.20;;;0.90;;
3070;SDS011;1546;47.208;9.038;2023-04-16T13:11:13;3.00;;;0.80;;
3070;SDS011;1546;47.208;9.038;2023-04-16T13:13:40;2.90;;;0.75;;
3070;SDS011;1546;47.208;9.038;2023-04-16T13:16:06;2.88;;;0.60;;
3070;SDS011;1546;47.208;9.038;2023-04-16T13:18:33;3.92;;;1.08;;
3070;SDS011;1546;47.208;9.038;2023-04-16T13:21:01;3.22;;;0.82;;
3070;SDS011;1546;47.208;9.038;2023-04-16T13:23:28;3.75;;;0.80;;
3070;SDS011;1546;47.208;9.038;2023-04-16T13:25:55;3.85;;;0.70;;
3070;SDS011;1546;47.208;9.038;2023-04-16T13:28:24;3.00;;;0.75;;
3070;SDS011;1546;47.208;9.038;2023-04-16T13:30:51;6.00;;;0.80;;
3070;SDS011;1546;47.208;9.038;2023-04-16T13:33:18;3.80;;;0.65;;
3070;SDS011;1546;47.208;9.038;2023-04-16T13:35:46;3.40;;;0.80;;
3070;SDS011;1546;47.208;9.038;2023-04-16T13:38:13;3.00;;;0.70;;
3070;SDS011;1546;47.208;9.038;2023-04-16T13:40:39;3.00;;;0.70;;
3070;SDS011;1546;47.208;9.038;2023-04-16T13:43:06;3.20;;;0.65;;
3070;SDS011;1546;47.208;9.038;2023-04-16T13:45:35;3.63;;;0.88;;
3070;SDS011;1546;47.208;9.038;2023-04-16T13:48:03;2.95;;;0.90;;
3070;SDS011;1546;47.208;9.038;2023-04-16T13:50:30;3.60;;;0.80;;
3070;SDS011;1546;47.208;9.038;2023-04-16T13:52:57;3.33;;;0.80;;
3070;SDS011;1546;47.208;9.038;2023-04-16T13:55:23;3.85;;;0.77;;
3070;SDS011;1546;47.208;9.038;2023-04-16T13:57:50;3.75;;;1.35;;
3070;SDS011;1546;47.208;9.038;2023-04-16T14:00:18;3.20;;;0.70;;
3070;SDS011;1546;47.208;9.038;2023-04-16T14:02:46;3.63;;;0.88;;
3070;SDS011;1546;47.208;9.038;2023-04-16T14:05:13;3.00;;;0.80;;
3070;SDS011;1546;47.208;9.038;2023-04-16T14:07:40;3.55;;;1.10;;
3070;SDS011;1546;47.208;9.038;2023-04-16T14:10:07;3.53;;;0.77;;
3070;SDS011;1546;47.208;9.038;2023-04-16T14:12:35;3.00;;;0.70;;
3070;SDS011;1546;47.208;9.038;2023-04-16T14:15:03;2.90;;;0.70;;
3070;SDS011;1546;47.208;9.038;2023-04-16T14:17:30;5.60;;;0.80;;
3070;SDS011;1546;47.208;9.038;2023-04-16T14:19:59;3.08;;;0.90;;
3070;SDS011;1546;47.208;9.038;2023-04-16T14:22:25;3.00;;;0.77;;
3070;SDS011;1546;47.208;9.038;2023-04-16T14:24:52;3.00;;;0.80;;
3070;SDS011;1546;47.208;9.038;2023-04-16T14:27:19;3.00;;;0.75;;
3070;SDS011;1546;47.208;9.038;2023-04-16T14:29:46;3.15;;;0.80;;
3070;SDS011;1546;47.208;9.038;2023-04-16T14:32:13;2.97;;;0.95;;
3070;SDS011;1546;47.208;9.038;2023-04-16T14:34:39;2.80;;;0.60;;
3070;SDS011;1546;47.208;9.038;2023-04-16T14:37:07;4.68;;;1.10;;
3070;SDS011;1546;47.208;9.038;2023-04-16T14:39:34;3.00;;;0.88;;
3070;SDS011;1546;47.208;9.038;2023-04-16T14:42:03;3.72;;;0.70;;
3070;SDS011;1546;47.208;9.038;2023-04-16T14:44:30;2.90;;;0.80;;
3070;SDS011;1546;47.208;9.038;2023-04-16T14:46:56;3.17;;;0.80;;
3070;SDS011;1546;47.208;9.038;2023-04-16T14:49:23;2.97;;;0.80;;
3070;SDS011;1546;47.208;9.038;2023-04-16T14:51:50;3.97;;;1.20;;
3070;SDS011;1546;47.208;9.038;2023-04-16T14:54:18;3.25;;;0.70;;
3070;SDS011;1546;47.208;9.038;2023-04-16T14:56:45;3.30;;;1.00;;
3070;SDS011;1546;47.208;9.038;2023-04-16T14:59:12;3.15;;;0.88;;
3070;SDS011;1546;47.208;9.038;2023-04-16T15:01:39;3.58;;;1.02;;
3070;SDS011;1546;47.208;9.038;2023-04-16T15:04:06;4.00;;;0.90;;
3070;SDS011;1546;47.208;9.038;2023-04-16T15:06:33;3.72;;;1.10;;
3070;SDS011;1546;47.208;9.038;2023-04-16T15:09:00;2.80;;;0.80;;
3070;SDS011;1546;47.208;9.038;2023-04-16T15:11:29;2.95;;;0.82;;
3070;SDS011;1546;47.208;9.038;2023-04-16T15:13:56;3.40;;;1.10;;
3070;SDS011;1546;47.208;9.038;2023-04-16T15:16:22;4.60;;;1.60;;
3070;SDS011;1546;47.208;9.038;2023-04-16T15:18:50;3.10;;;1.10;;
3070;SDS011;1546;47.208;9.038;2023-04-16T15:21:16;3.90;;;1.15;;